sensor_id;sensor_type;location;lat;lon;timestamp;P1;durP1;ratioP1;P2;durP2;ratioP2
83895;SDS011;74045;42.812;74.638;2023-12-04T00:00:27;33.05;;;11.80;;
83895;SDS011;74045;42.812;74.638;2023-12-04T00:02:52;35.72;;;12.27;;
83895;SDS011;74045;42.812;74.638;2023-12-04T00:05:18;38.13;;;13.02;;
83895;SDS011;74045;42.812;74.638;2023-12-04T00:07:44;40.10;;;12.45;;
83895;SDS011;74045;42.812;74.638;2023-12-04T00:10:10;78.72;;;24.05;;
83895;SDS011;74045;42.812;74.638;2023-12-04T00:12:35;80.78;;;24.42;;
83895;SDS011;74045;42.812;74.638;2023-12-04T00:15:01;44.88;;;17.38;;
83895;SDS011;74045;42.812;74.638;2023-12-04T00:17:27;60.90;;;23.38;;
83895;SDS011;74045;42.812;74.638;2023-12-04T00:19:53;48.63;;;17.08;;
83895;SDS011;74045;42.812;74.638;2023-12-04T00:22:18;40.95;;;14.65;;
83895;SDS011;74045;42.812;74.638;2023-12-04T00:24:44;40.58;;;14.38;;
83895;SDS011;74045;42.812;74.638;2023-12-04T00:27:10;36.45;;;12.93;;
83895;SDS011;74045;42.812;74.638;2023-12-04T00:29:36;48.83;;;15.38;;
83895;SDS011;74045;42.812;74.638;2023-12-04T00:32:01;39.58;;;16.45;;
83895;SDS011;74045;42.812;74.638;2023-12-04T00:34:27;33.38;;;12.93;;
83895;SDS011;74045;42.812;74.638;2023-12-04T00:36:53;38.47;;;13.23;;
83895;SDS011;74045;42.812;74.638;2023-12-04T00:39:19;35.97;;;13.35;;
83895;SDS011;74045;42.812;74.638;2023-12-04T00:41:44;40.38;;;15.05;;
83895;SDS011;74045;42.812;74.638;2023-12-04T00:44:10;38.40;;;12.02;;
83895;SDS011;74045;42.812;74.638;2023-12-04T00:46:36;31.35;;;11.52;;
83895;SDS011;74045;42.812;74.638;2023-12-04T00:49:01;36.63;;;11.60;;
83895;SDS011;74045;42.812;74.638;2023-12-04T00:51:27;33.38;;;11.30;;
83895;SDS011;74045;42.812;74.638;2023-12-04T00:53:53;37.75;;;11.82;;
83895;SDS011;74045;42.812;74.638;2023-12-04T00:56:18;39.15;;;12.43;;
83895;SDS011;74045;42.812;74.638;2023-12-04T00:58:45;33.58;;;12.30;;
83895;SDS011;74045;42.812;74.638;2023-12-04T01:01:11;35.65;;;11.65;;
83895;SDS011;74045;42.812;74.638;2023-12-04T01:03:37;33.50;;;12.60;;
83895;SDS011;74045;42.812;74.638;2023-12-04T01:06:03;39.42;;;11.88;;
83895;SDS011;74045;42.812;74.638;2023-12-04T01:08:29;36.20;;;12.15;;
83895;SDS011;74045;42.812;74.638;2023-12-04T01:10:55;34.47;;;12.10;;
83895;SDS011;74045;42.812;74.638;2023-12-04T01:13:20;37.33;;;12.23;;
83895;SDS011;74045;42.812;74.638;2023-12-04T01:15:46;46.67;;;11.85;;
83895;SDS011;74045;42.812;74.638;2023-12-04T01:18:13;33.72;;;11.23;;
83895;SDS011;74045;42.812;74.638;2023-12-04T01:20:39;42.75;;;12.63;;
83895;SDS011;74045;42.812;74.638;2023-12-04T01:23:05;30.13;;;11.57;;
83895;SDS011;74045;42.812;74.638;2023-12-04T01:25:31;37.38;;;12.70;;
83895;SDS011;74045;42.812;74.638;2023-12-04T01:27:57;38.53;;;13.00;;
83895;SDS011;74045;42.812;74.638;2023-12-04T01:30:22;38.50;;;12.80;;
83895;SDS011;74045;42.812;74.638;2023-12-04T01:32:48;41.92;;;13.23;;
83895;SDS011;74045;42.812;74.638;2023-12-04T01:35:14;38.72;;;12.85;;
83895;SDS011;74045;42.812;74.638;2023-12-04T01:37:39;40.85;;;13.00;;
83895;SDS011;74045;42.812;74.638;2023-12-04T01:40:05;32.30;;;11.02;;
83895;SDS011;74045;42.812;74.638;2023-12-04T01:42:32;35.47;;;12.95;;
83895;SDS011;74045;42.812;74.638;2023-12-04T01:44:58;43.13;;;12.95;;
83895;SDS011;74045;42.812;74.638;2023-12-04T01:47:23;50.38;;;13.98;;
83895;SDS011;74045;42.812;74.638;2023-12-04T01:49:50;46.22;;;14.60;;
83895;SDS011;74045;42.812;74.638;2023-12-04T01:52:16;42.15;;;12.88;;
83895;SDS011;74045;42.812;74.638;2023-12-04T01:54:42;34.72;;;12.35;;
83895;SDS011;74045;42.812;74.638;2023-12-04T01:57:09;37.65;;;12.52;;
83895;SDS011;74045;42.812;74.638;2023-12-04T01:59:35;64.07;;;12.32;;
83895;SDS011;74045;42.812;74.638;2023-12-04T02:02:01;43.28;;;13.07;;
83895;SDS011;74045;42.812;74.638;2023-12-04T02:04:27;45.63;;;14.30;;
83895;SDS011;74045;42.812;74.638;2023-12-04T02:06:53;46.13;;;14.82;;
83895;SDS011;74045;42.812;74.638;2023-12-04T02:09:19;58.15;;;17.40;;
83895;SDS011;74045;42.812;74.638;2023-12-04T02:11:45;62.83;;;17.20;;
83895;SDS011;74045;42.812;74.638;2023-12-04T02:14:12;51.67;;;15.48;;
83895;SDS011;74045;42.812;74.638;2023-12-04T02:16:39;46.92;;;15.20;;
83895;SDS011;74045;42.812;74.638;2023-12-04T02:19:15;46.22;;;16.17;;
83895;SDS011;74045;42.812;74.638;2023-12-04T02:21:41;42.25;;;15.90;;
83895;SDS011;74045;42.812;74.638;2023-12-04T02:24:07;57.75;;;15.02;;
83895;SDS011;74045;42.812;74.638;2023-12-04T02:26:34;53.08;;;13.75;;
83895;SDS011;74045;42.812;74.638;2023-12-04T02:29:06;44.83;;;13.98;;
83895;SDS011;74045;42.812;74.638;2023-12-04T02:31:37;59.42;;;14.25;;
83895;SDS011;74045;42.812;74.638;2023-12-04T02:34:05;48.22;;;14.18;;
83895;SDS011;74045;42.812;74.638;2023-12-04T02:36:32;54.20;;;15.73;;
83895;SDS011;74045;42.812;74.638;2023-12-04T02:39:00;70.45;;;17.20;;
83895;SDS011;74045;42.812;74.638;2023-12-04T02:41:27;54.88;;;16.17;;
83895;SDS011;74045;42.812;74.638;2023-12-04T02:43:52;76.68;;;20.65;;
83895;SDS011;74045;42.812;74.638;2023-12-04T02:46:18;79.70;;;26.90;;
83895;SDS011;74045;42.812;74.638;2023-12-04T02:48:44;81.20;;;25.88;;
83895;SDS011;74045;42.812;74.638;2023-12-04T02:51:10;69.05;;;22.42;;
83895;SDS011;74045;42.812;74.638;2023-12-04T02:53:36;77.50;;;22.50;;
83895;SDS011;74045;42.812;74.638;2023-12-04T02:56:02;78.85;;;21.83;;
83895;SDS011;74045;42.812;74.638;2023-12-04T02:58:27;63.83;;;21.65;;
83895;SDS011;74045;42.812;74.638;2023-12-04T03:00:53;55.35;;;19.98;;
83895;SDS011;74045;42.812;74.638;2023-12-04T03:03:22;56.72;;;19.25;;
83895;SDS011;74045;42.812;74.638;2023-12-04T03:05:49;39.33;;;15.82;;
83895;SDS011;74045;42.812;74.638;2023-12-04T03:08:15;46.13;;;16.48;;
83895;SDS011;74045;42.812;74.638;2023-12-04T03:10:40;41.97;;;15.05;;
83895;SDS011;74045;42.812;74.638;2023-12-04T03:13:06;55.60;;;16.15;;
83895;SDS011;74045;42.812;74.638;2023-12-04T03:15:31;52.50;;;16.10;;
83895;SDS011;74045;42.812;74.638;2023-12-04T03:17:57;49.15;;;15.18;;
83895;SDS011;74045;42.812;74.638;2023-12-04T03:20:25;48.15;;;16.80;;
83895;SDS011;74045;42.812;74.638;2023-12-04T03:22:51;42.75;;;15.95;;
83895;SDS011;74045;42.812;74.638;2023-12-04T03:25:17;54.67;;;18.42;;
83895;SDS011;74045;42.812;74.638;2023-12-04T03:27:42;49.03;;;17.63;;
83895;SDS011;74045;42.812;74.638;2023-12-04T03:30:08;50.88;;;17.38;;
83895;SDS011;74045;42.812;74.638;2023-12-04T03:32:34;58.92;;;21.10;;
83895;SDS011;74045;42.812;74.638;2023-12-04T03:35:00;55.35;;;19.45;;
83895;SDS011;74045;42.812;74.638;2023-12-04T03:37:26;74.95;;;21.48;;
83895;SDS011;74045;42.812;74.638;2023-12-04T03:39:52;77.03;;;24.63;;
83895;SDS011;74045;42.812;74.638;2023-12-04T03:42:17;76.03;;;22.55;;
83895;SDS011;74045;42.812;74.638;2023-12-04T03:44:43;84.18;;;22.40;;
83895;SDS011;74045;42.812;74.638;2023-12-04T03:47:09;48.67;;;17.75;;
83895;SDS011;74045;42.812;74.638;2023-12-04T03:49:34;54.30;;;18.73;;
83895;SDS011;74045;42.812;74.638;2023-12-04T03:52:00;53.40;;;18.42;;
83895;SDS011;74045;42.812;74.638;2023-12-04T03:54:25;47.35;;;17.67;;
83895;SDS011;74045;42.812;74.638;2023-12-04T03:56:51;61.90;;;17.50;;
83895;SDS011;74045;42.812;74.638;2023-12-04T03:59:17;63.53;;;18.58;;
83895;SDS011;74045;42.812;74.638;2023-12-04T04:01:42;55.40;;;18.05;;
83895;SDS011;74045;42.812;74.638;2023-12-04T04:04:09;59.45;;;18.25;;
83895;SDS011;74045;42.812;74.638;2023-12-04T04:06:35;54.10;;;19.95;;
83895;SDS011;74045;42.812;74.638;2023-12-04T04:09:04;57.83;;;19.48;;
83895;SDS011;74045;42.812;74.638;2023-12-04T04:11:30;53.88;;;17.73;;
83895;SDS011;74045;42.812;74.638;2023-12-04T04:13:56;47.58;;;16.45;;
83895;SDS011;74045;42.812;74.638;2023-12-04T04:16:21;43.72;;;14.23;;
83895;SDS011;74045;42.812;74.638;2023-12-04T04:18:47;43.20;;;14.27;;
83895;SDS011;74045;42.812;74.638;2023-12-04T04:21:13;41.80;;;14.52;;
83895;SDS011;74045;42.812;74.638;2023-12-04T04:23:38;44.60;;;15.10;;
83895;SDS011;74045;42.812;74.638;2023-12-04T04:26:04;40.35;;;15.05;;
83895;SDS011;74045;42.812;74.638;2023-12-04T04:28:30;40.92;;;15.63;;
83895;SDS011;74045;42.812;74.638;2023-12-04T04:30:56;40.22;;;15.52;;
83895;SDS011;74045;42.812;74.638;2023-12-04T04:33:21;42.85;;;16.85;;
83895;SDS011;74045;42.812;74.638;2023-12-04T04:35:47;64.32;;;17.15;;
83895;SDS011;74045;42.812;74.638;2023-12-04T04:38:13;48.45;;;16.85;;
83895;SDS011;74045;42.812;74.638;2023-12-04T04:40:38;52.40;;;17.40;;
83895;SDS011;74045;42.812;74.638;2023-12-04T04:43:07;52.30;;;17.00;;
83895;SDS011;74045;42.812;74.638;2023-12-04T04:45:33;49.58;;;15.60;;
83895;SDS011;74045;42.812;74.638;2023-12-04T04:47:59;52.20;;;18.83;;
83895;SDS011;74045;42.812;74.638;2023-12-04T04:50:25;64.03;;;18.83;;
83895;SDS011;74045;42.812;74.638;2023-12-04T04:52:50;68.63;;;21.25;;
83895;SDS011;74045;42.812;74.638;2023-12-04T04:55:16;69.35;;;21.75;;
83895;SDS011;74045;42.812;74.638;2023-12-04T04:57:42;81.10;;;26.13;;
83895;SDS011;74045;42.812;74.638;2023-12-04T05:00:08;85.68;;;27.73;;
83895;SDS011;74045;42.812;74.638;2023-12-04T05:02:34;73.68;;;26.70;;
83895;SDS011;74045;42.812;74.638;2023-12-04T05:05:02;84.43;;;29.23;;
83895;SDS011;74045;42.812;74.638;2023-12-04T05:07:29;83.18;;;31.05;;
83895;SDS011;74045;42.812;74.638;2023-12-04T05:09:54;79.05;;;28.77;;
83895;SDS011;74045;42.812;74.638;2023-12-04T05:12:20;72.63;;;29.80;;
83895;SDS011;74045;42.812;74.638;2023-12-04T05:14:46;103.00;;;34.72;;
83895;SDS011;74045;42.812;74.638;2023-12-04T05:17:11;104.15;;;37.60;;
83895;SDS011;74045;42.812;74.638;2023-12-04T05:19:37;138.35;;;37.70;;
83895;SDS011;74045;42.812;74.638;2023-12-04T05:22:03;103.07;;;37.63;;
83895;SDS011;74045;42.812;74.638;2023-12-04T05:24:28;105.07;;;37.63;;
83895;SDS011;74045;42.812;74.638;2023-12-04T05:26:54;97.95;;;36.28;;
83895;SDS011;74045;42.812;74.638;2023-12-04T05:29:20;87.80;;;35.58;;
83895;SDS011;74045;42.812;74.638;2023-12-04T05:31:46;97.97;;;36.33;;
83895;SDS011;74045;42.812;74.638;2023-12-04T05:34:12;88.90;;;33.45;;
83895;SDS011;74045;42.812;74.638;2023-12-04T05:36:38;91.35;;;35.85;;
83895;SDS011;74045;42.812;74.638;2023-12-04T05:39:04;86.63;;;34.47;;
83895;SDS011;74045;42.812;74.638;2023-12-04T05:41:29;89.63;;;33.28;;
83895;SDS011;74045;42.812;74.638;2023-12-04T05:43:55;84.13;;;33.22;;
83895;SDS011;74045;42.812;74.638;2023-12-04T05:46:21;84.72;;;32.47;;
83895;SDS011;74045;42.812;74.638;2023-12-04T05:48:47;84.20;;;32.78;;
83895;SDS011;74045;42.812;74.638;2023-12-04T05:51:13;82.38;;;30.88;;
83895;SDS011;74045;42.812;74.638;2023-12-04T05:53:40;84.15;;;30.92;;
83895;SDS011;74045;42.812;74.638;2023-12-04T05:56:06;86.10;;;29.52;;
83895;SDS011;74045;42.812;74.638;2023-12-04T05:58:34;77.30;;;28.02;;
83895;SDS011;74045;42.812;74.638;2023-12-04T06:01:00;71.32;;;27.25;;
83895;SDS011;74045;42.812;74.638;2023-12-04T06:03:26;85.60;;;27.92;;
83895;SDS011;74045;42.812;74.638;2023-12-04T06:05:51;83.70;;;27.23;;
83895;SDS011;74045;42.812;74.638;2023-12-04T06:08:17;69.53;;;25.45;;
83895;SDS011;74045;42.812;74.638;2023-12-04T06:10:43;62.15;;;26.27;;
83895;SDS011;74045;42.812;74.638;2023-12-04T06:13:08;69.45;;;25.42;;
83895;SDS011;74045;42.812;74.638;2023-12-04T06:15:34;69.85;;;26.42;;
83895;SDS011;74045;42.812;74.638;2023-12-04T06:18:00;77.40;;;26.95;;
83895;SDS011;74045;42.812;74.638;2023-12-04T06:20:25;71.85;;;29.65;;
83895;SDS011;74045;42.812;74.638;2023-12-04T06:22:51;77.85;;;28.27;;
83895;SDS011;74045;42.812;74.638;2023-12-04T06:25:17;76.47;;;28.80;;
83895;SDS011;74045;42.812;74.638;2023-12-04T06:27:43;75.80;;;27.23;;
83895;SDS011;74045;42.812;74.638;2023-12-04T06:30:09;75.72;;;28.05;;
83895;SDS011;74045;42.812;74.638;2023-12-04T06:32:36;69.00;;;27.13;;
83895;SDS011;74045;42.812;74.638;2023-12-04T06:35:02;65.97;;;26.17;;
83895;SDS011;74045;42.812;74.638;2023-12-04T06:37:28;72.80;;;25.13;;
83895;SDS011;74045;42.812;74.638;2023-12-04T06:39:54;68.93;;;25.65;;
83895;SDS011;74045;42.812;74.638;2023-12-04T06:42:25;69.22;;;25.05;;
83895;SDS011;74045;42.812;74.638;2023-12-04T06:44:51;71.75;;;25.42;;
83895;SDS011;74045;42.812;74.638;2023-12-04T06:47:17;63.28;;;22.73;;
83895;SDS011;74045;42.812;74.638;2023-12-04T06:49:47;56.42;;;20.40;;
83895;SDS011;74045;42.812;74.638;2023-12-04T06:52:13;59.92;;;21.58;;
83895;SDS011;74045;42.812;74.638;2023-12-04T06:54:38;54.30;;;19.98;;
83895;SDS011;74045;42.812;74.638;2023-12-04T06:57:04;67.53;;;21.33;;
83895;SDS011;74045;42.812;74.638;2023-12-04T06:59:30;58.45;;;17.52;;
83895;SDS011;74045;42.812;74.638;2023-12-04T07:01:55;55.40;;;17.92;;
83895;SDS011;74045;42.812;74.638;2023-12-04T07:04:21;53.72;;;16.38;;
83895;SDS011;74045;42.812;74.638;2023-12-04T07:06:47;41.38;;;14.50;;
83895;SDS011;74045;42.812;74.638;2023-12-04T07:09:16;37.42;;;14.38;;
83895;SDS011;74045;42.812;74.638;2023-12-04T07:11:45;46.63;;;12.13;;
83895;SDS011;74045;42.812;74.638;2023-12-04T07:14:11;39.55;;;12.07;;
83895;SDS011;74045;42.812;74.638;2023-12-04T07:16:43;36.63;;;12.18;;
83895;SDS011;74045;42.812;74.638;2023-12-04T07:19:09;38.40;;;13.57;;
83895;SDS011;74045;42.812;74.638;2023-12-04T07:21:36;47.25;;;13.77;;
83895;SDS011;74045;42.812;74.638;2023-12-04T07:24:02;47.08;;;13.50;;
83895;SDS011;74045;42.812;74.638;2023-12-04T07:26:28;33.88;;;11.05;;
83895;SDS011;74045;42.812;74.638;2023-12-04T07:28:55;29.48;;;10.80;;
83895;SDS011;74045;42.812;74.638;2023-12-04T07:31:21;33.17;;;11.13;;
83895;SDS011;74045;42.812;74.638;2023-12-04T07:33:46;33.17;;;11.15;;
83895;SDS011;74045;42.812;74.638;2023-12-04T07:36:12;37.92;;;14.60;;
83895;SDS011;74045;42.812;74.638;2023-12-04T07:38:38;32.58;;;11.85;;
83895;SDS011;74045;42.812;74.638;2023-12-04T07:41:03;27.25;;;9.38;;
83895;SDS011;74045;42.812;74.638;2023-12-04T07:43:29;33.35;;;10.98;;
83895;SDS011;74045;42.812;74.638;2023-12-04T07:45:55;25.52;;;9.77;;
83895;SDS011;74045;42.812;74.638;2023-12-04T07:48:21;33.03;;;12.18;;
83895;SDS011;74045;42.812;74.638;2023-12-04T07:50:47;27.17;;;9.88;;
83895;SDS011;74045;42.812;74.638;2023-12-04T07:53:13;56.60;;;18.27;;
83895;SDS011;74045;42.812;74.638;2023-12-04T07:55:39;53.15;;;20.20;;
83895;SDS011;74045;42.812;74.638;2023-12-04T07:58:04;54.83;;;23.23;;
83895;SDS011;74045;42.812;74.638;2023-12-04T08:00:30;69.95;;;24.63;;
83895;SDS011;74045;42.812;74.638;2023-12-04T08:02:56;56.38;;;23.00;;
83895;SDS011;74045;42.812;74.638;2023-12-04T08:05:21;64.40;;;24.98;;
83895;SDS011;74045;42.812;74.638;2023-12-04T08:07:47;58.55;;;24.58;;
83895;SDS011;74045;42.812;74.638;2023-12-04T08:10:13;59.15;;;23.98;;
83895;SDS011;74045;42.812;74.638;2023-12-04T08:12:39;61.55;;;23.98;;
83895;SDS011;74045;42.812;74.638;2023-12-04T08:15:05;69.30;;;24.83;;
83895;SDS011;74045;42.812;74.638;2023-12-04T08:17:31;62.92;;;23.60;;
83895;SDS011;74045;42.812;74.638;2023-12-04T08:19:57;61.33;;;23.77;;
83895;SDS011;74045;42.812;74.638;2023-12-04T08:22:22;59.30;;;23.17;;
83895;SDS011;74045;42.812;74.638;2023-12-04T08:24:48;61.03;;;23.45;;
83895;SDS011;74045;42.812;74.638;2023-12-04T08:27:13;58.03;;;20.80;;
83895;SDS011;74045;42.812;74.638;2023-12-04T08:29:39;59.55;;;22.33;;
83895;SDS011;74045;42.812;74.638;2023-12-04T08:32:06;57.00;;;20.63;;
83895;SDS011;74045;42.812;74.638;2023-12-04T08:34:31;58.00;;;19.60;;
83895;SDS011;74045;42.812;74.638;2023-12-04T08:36:58;50.15;;;19.58;;
83895;SDS011;74045;42.812;74.638;2023-12-04T08:39:28;61.90;;;23.42;;
83895;SDS011;74045;42.812;74.638;2023-12-04T08:41:54;74.03;;;24.17;;
83895;SDS011;74045;42.812;74.638;2023-12-04T08:44:20;65.30;;;26.30;;
83895;SDS011;74045;42.812;74.638;2023-12-04T08:46:46;74.78;;;26.63;;
83895;SDS011;74045;42.812;74.638;2023-12-04T08:49:12;59.17;;;25.42;;
83895;SDS011;74045;42.812;74.638;2023-12-04T08:51:37;81.63;;;24.65;;
83895;SDS011;74045;42.812;74.638;2023-12-04T08:54:03;70.72;;;25.65;;
83895;SDS011;74045;42.812;74.638;2023-12-04T08:56:29;65.22;;;23.45;;
83895;SDS011;74045;42.812;74.638;2023-12-04T08:58:55;63.78;;;23.45;;
83895;SDS011;74045;42.812;74.638;2023-12-04T09:01:22;62.53;;;22.60;;
83895;SDS011;74045;42.812;74.638;2023-12-04T09:03:48;62.28;;;23.52;;
83895;SDS011;74045;42.812;74.638;2023-12-04T09:06:14;59.83;;;23.13;;
83895;SDS011;74045;42.812;74.638;2023-12-04T09:08:40;69.57;;;23.25;;
83895;SDS011;74045;42.812;74.638;2023-12-04T09:11:06;60.70;;;23.00;;
83895;SDS011;74045;42.812;74.638;2023-12-04T09:13:32;69.68;;;25.30;;
83895;SDS011;74045;42.812;74.638;2023-12-04T09:15:59;51.83;;;23.33;;
83895;SDS011;74045;42.812;74.638;2023-12-04T09:18:25;54.15;;;22.88;;
83895;SDS011;74045;42.812;74.638;2023-12-04T09:20:51;63.38;;;24.25;;
83895;SDS011;74045;42.812;74.638;2023-12-04T09:23:16;58.28;;;23.35;;
83895;SDS011;74045;42.812;74.638;2023-12-04T09:25:42;56.70;;;25.75;;
83895;SDS011;74045;42.812;74.638;2023-12-04T09:28:08;54.50;;;23.05;;
83895;SDS011;74045;42.812;74.638;2023-12-04T09:30:35;65.90;;;24.65;;
83895;SDS011;74045;42.812;74.638;2023-12-04T09:33:02;57.10;;;24.67;;
83895;SDS011;74045;42.812;74.638;2023-12-04T09:35:28;64.32;;;24.40;;
83895;SDS011;74045;42.812;74.638;2023-12-04T09:37:54;57.22;;;24.88;;
83895;SDS011;74045;42.812;74.638;2023-12-04T09:40:19;63.50;;;24.38;;
83895;SDS011;74045;42.812;74.638;2023-12-04T09:42:45;67.60;;;25.98;;
83895;SDS011;74045;42.812;74.638;2023-12-04T09:45:12;66.07;;;26.85;;
83895;SDS011;74045;42.812;74.638;2023-12-04T09:47:38;61.58;;;26.67;;
83895;SDS011;74045;42.812;74.638;2023-12-04T09:50:04;76.03;;;27.98;;
83895;SDS011;74045;42.812;74.638;2023-12-04T09:52:30;63.90;;;25.33;;
83895;SDS011;74045;42.812;74.638;2023-12-04T09:54:56;62.20;;;26.83;;
83895;SDS011;74045;42.812;74.638;2023-12-04T09:57:23;65.65;;;25.20;;
83895;SDS011;74045;42.812;74.638;2023-12-04T09:59:49;64.60;;;27.08;;
83895;SDS011;74045;42.812;74.638;2023-12-04T10:02:17;78.57;;;26.52;;
83895;SDS011;74045;42.812;74.638;2023-12-04T10:04:43;76.10;;;25.95;;
83895;SDS011;74045;42.812;74.638;2023-12-04T10:07:09;62.17;;;24.45;;
83895;SDS011;74045;42.812;74.638;2023-12-04T10:09:34;57.85;;;22.92;;
83895;SDS011;74045;42.812;74.638;2023-12-04T10:12:00;61.55;;;23.77;;
83895;SDS011;74045;42.812;74.638;2023-12-04T10:14:26;82.22;;;25.63;;
83895;SDS011;74045;42.812;74.638;2023-12-04T10:16:52;75.30;;;29.30;;
83895;SDS011;74045;42.812;74.638;2023-12-04T10:19:25;75.78;;;29.55;;
83895;SDS011;74045;42.812;74.638;2023-12-04T10:21:54;69.72;;;30.35;;
83895;SDS011;74045;42.812;74.638;2023-12-04T10:24:38;87.90;;;35.13;;
83895;SDS011;74045;42.812;74.638;2023-12-04T10:27:08;86.00;;;37.50;;
83895;SDS011;74045;42.812;74.638;2023-12-04T10:29:43;79.53;;;35.38;;
83895;SDS011;74045;42.812;74.638;2023-12-04T10:32:13;90.82;;;37.95;;
83895;SDS011;74045;42.812;74.638;2023-12-04T10:34:42;101.93;;;39.30;;
83895;SDS011;74045;42.812;74.638;2023-12-04T10:37:10;92.82;;;36.15;;
83895;SDS011;74045;42.812;74.638;2023-12-04T10:39:45;95.32;;;37.70;;
83895;SDS011;74045;42.812;74.638;2023-12-04T10:42:28;96.15;;;40.20;;
83895;SDS011;74045;42.812;74.638;2023-12-04T10:44:58;111.88;;;44.08;;
83895;SDS011;74045;42.812;74.638;2023-12-04T10:47:25;117.85;;;47.38;;
83895;SDS011;74045;42.812;74.638;2023-12-04T10:49:52;118.22;;;46.38;;
83895;SDS011;74045;42.812;74.638;2023-12-04T10:52:18;126.20;;;45.83;;
83895;SDS011;74045;42.812;74.638;2023-12-04T10:54:45;115.63;;;45.17;;
83895;SDS011;74045;42.812;74.638;2023-12-04T10:57:11;113.57;;;44.78;;
83895;SDS011;74045;42.812;74.638;2023-12-04T10:59:41;122.70;;;46.72;;
83895;SDS011;74045;42.812;74.638;2023-12-04T11:02:08;118.70;;;44.40;;
83895;SDS011;74045;42.812;74.638;2023-12-04T11:04:45;122.18;;;46.83;;
83895;SDS011;74045;42.812;74.638;2023-12-04T11:07:14;134.02;;;46.38;;
83895;SDS011;74045;42.812;74.638;2023-12-04T11:09:40;119.32;;;46.58;;
83895;SDS011;74045;42.812;74.638;2023-12-04T11:12:08;114.72;;;46.80;;
83895;SDS011;74045;42.812;74.638;2023-12-04T11:14:42;135.52;;;48.03;;
83895;SDS011;74045;42.812;74.638;2023-12-04T11:17:13;139.07;;;50.25;;
83895;SDS011;74045;42.812;74.638;2023-12-04T11:19:50;132.93;;;52.72;;
83895;SDS011;74045;42.812;74.638;2023-12-04T11:22:20;142.65;;;57.63;;
83895;SDS011;74045;42.812;74.638;2023-12-04T11:24:47;156.73;;;58.67;;
83895;SDS011;74045;42.812;74.638;2023-12-04T11:27:14;154.27;;;55.55;;
83895;SDS011;74045;42.812;74.638;2023-12-04T11:29:42;126.00;;;51.05;;
83895;SDS011;74045;42.812;74.638;2023-12-04T11:32:16;155.18;;;50.50;;
83895;SDS011;74045;42.812;74.638;2023-12-04T11:40:06;120.40;;;46.42;;
83895;SDS011;74045;42.812;74.638;2023-12-04T11:42:32;117.10;;;45.55;;
83895;SDS011;74045;42.812;74.638;2023-12-04T11:44:58;131.00;;;46.33;;
83895;SDS011;74045;42.812;74.638;2023-12-04T11:47:24;123.43;;;46.67;;
83895;SDS011;74045;42.812;74.638;2023-12-04T11:49:50;137.10;;;49.85;;
83895;SDS011;74045;42.812;74.638;2023-12-04T11:52:15;139.38;;;49.22;;
83895;SDS011;74045;42.812;74.638;2023-12-04T11:55:03;140.52;;;53.75;;
83895;SDS011;74045;42.812;74.638;2023-12-04T11:57:39;130.23;;;49.60;;
83895;SDS011;74045;42.812;74.638;2023-12-04T12:00:08;156.38;;;59.35;;
83895;SDS011;74045;42.812;74.638;2023-12-04T12:05:19;151.10;;;56.10;;
83895;SDS011;74045;42.812;74.638;2023-12-04T12:07:46;171.73;;;59.67;;
83895;SDS011;74045;42.812;74.638;2023-12-04T12:10:12;166.13;;;60.22;;
83895;SDS011;74045;42.812;74.638;2023-12-04T12:12:42;171.48;;;66.53;;
83895;SDS011;74045;42.812;74.638;2023-12-04T12:15:08;175.27;;;68.88;;
83895;SDS011;74045;42.812;74.638;2023-12-04T12:17:35;178.88;;;65.80;;
83895;SDS011;74045;42.812;74.638;2023-12-04T12:20:02;178.40;;;66.40;;
83895;SDS011;74045;42.812;74.638;2023-12-04T12:22:32;163.23;;;65.00;;
83895;SDS011;74045;42.812;74.638;2023-12-04T12:25:03;157.63;;;63.90;;
83895;SDS011;74045;42.812;74.638;2023-12-04T12:27:30;179.95;;;76.55;;
83895;SDS011;74045;42.812;74.638;2023-12-04T12:29:56;172.40;;;71.38;;
83895;SDS011;74045;42.812;74.638;2023-12-04T12:32:22;177.40;;;69.18;;
83895;SDS011;74045;42.812;74.638;2023-12-04T12:34:48;170.57;;;71.25;;
83895;SDS011;74045;42.812;74.638;2023-12-04T12:37:14;168.73;;;69.70;;
83895;SDS011;74045;42.812;74.638;2023-12-04T12:39:40;169.63;;;67.78;;
83895;SDS011;74045;42.812;74.638;2023-12-04T12:42:06;178.50;;;75.35;;
83895;SDS011;74045;42.812;74.638;2023-12-04T12:44:39;170.20;;;67.55;;
83895;SDS011;74045;42.812;74.638;2023-12-04T12:47:06;162.07;;;67.07;;
83895;SDS011;74045;42.812;74.638;2023-12-04T12:49:32;188.88;;;74.88;;
83895;SDS011;74045;42.812;74.638;2023-12-04T12:52:01;173.43;;;75.90;;
83895;SDS011;74045;42.812;74.638;2023-12-04T12:54:36;169.48;;;72.43;;
83895;SDS011;74045;42.812;74.638;2023-12-04T12:57:05;174.00;;;71.22;;
83895;SDS011;74045;42.812;74.638;2023-12-04T12:59:32;170.02;;;62.97;;
83895;SDS011;74045;42.812;74.638;2023-12-04T13:01:58;148.75;;;57.78;;
83895;SDS011;74045;42.812;74.638;2023-12-04T13:04:35;141.65;;;55.05;;
83895;SDS011;74045;42.812;74.638;2023-12-04T13:07:05;160.60;;;57.15;;
83895;SDS011;74045;42.812;74.638;2023-12-04T13:09:32;123.75;;;50.08;;
83895;SDS011;74045;42.812;74.638;2023-12-04T13:11:58;133.98;;;51.08;;
83895;SDS011;74045;42.812;74.638;2023-12-04T13:14:24;118.93;;;45.45;;
83895;SDS011;74045;42.812;74.638;2023-12-04T13:16:50;124.30;;;47.22;;
83895;SDS011;74045;42.812;74.638;2023-12-04T13:19:16;123.80;;;47.67;;
83895;SDS011;74045;42.812;74.638;2023-12-04T13:21:42;113.95;;;44.20;;
83895;SDS011;74045;42.812;74.638;2023-12-04T13:24:10;114.07;;;41.88;;
83895;SDS011;74045;42.812;74.638;2023-12-04T13:26:36;107.40;;;38.25;;
83895;SDS011;74045;42.812;74.638;2023-12-04T13:29:02;98.88;;;37.08;;
83895;SDS011;74045;42.812;74.638;2023-12-04T13:31:27;86.75;;;34.97;;
83895;SDS011;74045;42.812;74.638;2023-12-04T13:33:53;89.55;;;35.17;;
83895;SDS011;74045;42.812;74.638;2023-12-04T13:36:19;88.78;;;35.67;;
83895;SDS011;74045;42.812;74.638;2023-12-04T13:38:45;96.07;;;36.22;;
83895;SDS011;74045;42.812;74.638;2023-12-04T13:41:10;90.85;;;35.30;;
83895;SDS011;74045;42.812;74.638;2023-12-04T13:43:55;85.68;;;34.22;;
83895;SDS011;74045;42.812;74.638;2023-12-04T13:46:21;85.18;;;34.28;;
83895;SDS011;74045;42.812;74.638;2023-12-04T13:48:47;80.78;;;35.50;;
83895;SDS011;74045;42.812;74.638;2023-12-04T13:51:13;83.57;;;35.17;;
83895;SDS011;74045;42.812;74.638;2023-12-04T13:53:40;94.07;;;35.45;;
83895;SDS011;74045;42.812;74.638;2023-12-04T13:56:10;90.38;;;38.20;;
83895;SDS011;74045;42.812;74.638;2023-12-04T13:58:48;110.03;;;40.53;;
83895;SDS011;74045;42.812;74.638;2023-12-04T14:01:24;114.68;;;42.65;;
83895;SDS011;74045;42.812;74.638;2023-12-04T14:03:53;110.47;;;44.15;;
83895;SDS011;74045;42.812;74.638;2023-12-04T14:06:21;108.60;;;45.58;;
83895;SDS011;74045;42.812;74.638;2023-12-04T14:08:47;116.30;;;45.58;;
83895;SDS011;74045;42.812;74.638;2023-12-04T14:11:13;114.63;;;44.92;;